createdAt,value
2019-03-28T00:04:19.720Z,3.57
2019-03-28T00:09:23.976Z,4.30
2019-03-28T00:14:28.262Z,3.70
2019-03-28T00:19:32.785Z,3.27
2019-03-28T00:24:42.481Z,3.30
2019-03-28T00:29:46.685Z,2.80
2019-03-28T00:34:50.918Z,4.00
2019-03-28T00:39:55.351Z,3.30
2019-03-28T00:45:00.003Z,3.07
2019-03-28T00:50:04.437Z,3.90
2019-03-28T00:55:08.773Z,3.23
2019-03-28T01:00:14.347Z,3.47
2019-03-28T01:05:18.988Z,4.17
2019-03-28T01:10:23.223Z,3.00
2019-03-28T01:15:27.578Z,4.07
2019-03-28T01:20:32.137Z,3.47
2019-03-28T01:25:36.407Z,3.30
2019-03-28T01:30:40.656Z,3.73
2019-03-28T01:35:44.878Z,4.13
2019-03-28T01:40:49.248Z,3.50
2019-03-28T01:45:53.834Z,3.97
2019-03-28T01:50:58.081Z,4.57
2019-03-28T01:56:02.318Z,4.87
2019-03-28T02:01:06.794Z,4.70
2019-03-28T02:06:11.023Z,6.07
2019-03-28T02:11:15.281Z,5.37
2019-03-28T02:16:19.685Z,6.30
2019-03-28T02:21:24.135Z,6.37
2019-03-28T02:26:28.344Z,6.20
2019-03-28T02:31:32.850Z,5.90
2019-03-28T02:36:37.053Z,5.87
2019-03-28T02:41:41.259Z,5.87
2019-03-28T02:46:45.450Z,6.03
2019-03-28T02:51:49.658Z,6.20
2019-03-28T02:56:54.148Z,6.47
2019-03-28T03:01:58.350Z,6.20
2019-03-28T03:07:02.883Z,5.57
2019-03-28T03:12:07.072Z,6.20
2019-03-28T03:17:11.294Z,5.83
2019-03-28T03:22:15.510Z,5.57
2019-03-28T03:27:19.717Z,5.27
2019-03-28T03:32:23.904Z,4.67
2019-03-28T03:37:29.752Z,5.20
2019-03-28T03:42:34.282Z,4.47
2019-03-28T03:47:38.577Z,4.90
2019-03-28T03:52:42.761Z,5.20
2019-03-28T03:57:47.059Z,5.37
2019-03-28T04:02:51.633Z,5.20
2019-03-28T04:07:55.829Z,4.73
2019-03-28T04:13:00.394Z,4.63
2019-03-28T04:18:04.922Z,4.50
2019-03-28T04:23:09.119Z,5.27
2019-03-28T04:28:24.794Z,4.77
2019-03-28T04:33:19.530Z,4.93
2019-03-28T04:38:24.592Z,6.00
2019-03-28T04:43:29.072Z,4.30
2019-03-28T04:48:33.625Z,4.37
2019-03-28T04:53:37.834Z,4.33
2019-03-28T04:58:44.809Z,4.50
2019-03-28T05:03:48.045Z,3.77
2019-03-28T05:08:52.242Z,4.10
2019-03-28T05:13:56.444Z,4.80
2019-03-28T05:19:01.008Z,3.60
2019-03-28T05:24:05.227Z,3.87
2019-03-28T05:29:09.430Z,3.87
2019-03-28T05:34:14.009Z,3.67
2019-03-28T05:39:18.198Z,3.73
2019-03-28T05:44:22.528Z,4.10
2019-03-28T05:49:27.125Z,3.43
2019-03-28T05:54:31.309Z,3.37
2019-03-28T05:59:35.785Z,3.07
2019-03-28T06:04:39.989Z,3.00
2019-03-28T06:09:44.581Z,3.07
2019-03-28T06:14:48.936Z,3.47
2019-03-28T06:19:53.159Z,3.43
2019-03-28T06:24:57.394Z,2.70
2019-03-28T06:30:20.806Z,3.40
2019-03-28T06:35:25.005Z,2.90
2019-03-28T06:40:29.232Z,2.77
2019-03-28T06:45:33.448Z,3.40
2019-03-28T06:50:37.864Z,3.10
2019-03-28T06:55:42.359Z,2.60
2019-03-28T07:00:47.107Z,2.97
2019-03-28T07:05:51.300Z,2.83
2019-03-28T07:10:57.900Z,3.30
2019-03-28T07:16:01.453Z,3.00
2019-03-28T07:21:05.677Z,2.90
2019-03-28T07:26:09.928Z,3.10
2019-03-28T07:31:14.149Z,3.30
2019-03-28T07:36:18.417Z,3.40
2019-03-28T07:41:22.710Z,3.47
2019-03-28T07:46:26.906Z,3.17
2019-03-28T07:51:31.118Z,3.00
2019-03-28T07:56:35.346Z,4.10
2019-03-28T08:01:39.587Z,3.47
2019-03-28T08:06:49.551Z,3.67
2019-03-28T08:11:49.710Z,3.27
2019-03-28T08:16:53.943Z,3.53
2019-03-28T08:21:58.449Z,3.17
2019-03-28T08:27:02.701Z,3.53
2019-03-28T08:32:13.449Z,3.80
2019-03-28T08:37:17.218Z,4.23
2019-03-28T08:42:21.511Z,3.03
2019-03-28T08:47:25.718Z,4.10
2019-03-28T08:52:29.938Z,3.83
2019-03-28T08:57:34.179Z,3.87
2019-03-28T09:02:38.404Z,2.73
2019-03-28T09:07:42.925Z,3.30
2019-03-28T09:12:47.190Z,3.33
2019-03-28T09:17:51.397Z,3.10
2019-03-28T09:22:55.938Z,3.47
2019-03-28T09:28:00.173Z,3.03
2019-03-28T09:33:05.009Z,3.47
2019-03-28T09:38:09.290Z,3.17
2019-03-28T09:43:13.505Z,3.57
2019-03-28T09:48:17.705Z,3.13
2019-03-28T09:53:22.171Z,3.97
2019-03-28T09:58:26.374Z,3.43
2019-03-28T10:03:30.645Z,3.97
2019-03-28T10:08:34.937Z,3.57
2019-03-28T10:13:39.435Z,3.77
2019-03-28T10:18:43.641Z,3.23
2019-03-28T10:23:47.855Z,2.90
2019-03-28T10:28:52.134Z,3.10
2019-03-28T10:33:56.414Z,2.97
2019-03-28T10:39:00.903Z,3.37
2019-03-28T10:44:05.190Z,3.50
2019-03-28T10:49:09.403Z,3.23
2019-03-28T10:54:19.980Z,3.23
2019-03-28T10:59:23.468Z,3.23
2019-03-28T11:04:26.358Z,3.53
2019-03-28T11:09:31.117Z,3.33
2019-03-28T11:14:35.361Z,2.97
2019-03-28T11:19:39.582Z,3.37
2019-03-28T11:24:46.340Z,3.77
2019-03-28T11:29:49.682Z,3.53
2019-03-28T11:34:54.139Z,3.60
2019-03-28T11:39:58.368Z,3.13
2019-03-28T11:45:02.573Z,3.70
2019-03-28T11:50:07.961Z,4.10
2019-03-28T11:55:12.318Z,3.37
2019-03-28T12:00:18.241Z,3.43
2019-03-28T12:05:22.451Z,3.13
2019-03-28T12:10:26.748Z,3.33
2019-03-28T12:15:30.940Z,3.43
2019-03-28T12:20:35.168Z,3.33
2019-03-28T12:25:39.613Z,3.87
2019-03-28T12:30:44.031Z,3.77
2019-03-28T12:35:48.331Z,3.57
2019-03-28T12:40:53.144Z,4.10
2019-03-28T12:45:57.470Z,3.70
2019-03-28T12:51:01.756Z,3.77
2019-03-28T12:56:05.993Z,4.00
2019-03-28T13:01:10.178Z,3.67
2019-03-28T13:06:14.455Z,3.90
2019-03-28T13:11:19.572Z,3.77
2019-03-28T13:16:24.515Z,3.37
2019-03-28T13:21:28.733Z,4.10
2019-03-28T13:26:33.265Z,3.63
2019-03-28T13:31:37.476Z,4.23
2019-03-28T13:36:41.682Z,4.03
2019-03-28T13:41:46.179Z,3.63
2019-03-28T13:46:50.681Z,4.03
2019-03-28T13:51:54.890Z,3.80
2019-03-28T13:56:59.106Z,3.40
2019-03-28T14:07:13.513Z,4.27
2019-03-28T14:12:17.807Z,3.80
2019-03-28T14:17:22.078Z,4.60
2019-03-28T14:22:26.419Z,3.60
2019-03-28T14:27:31.266Z,4.07
2019-03-28T14:32:35.822Z,4.33
2019-03-28T14:37:40.864Z,3.83
2019-03-28T14:42:45.523Z,3.97
2019-03-28T14:47:49.862Z,4.07
2019-03-28T14:52:54.605Z,3.60
2019-03-28T14:57:59.782Z,4.60
2019-03-28T15:03:04.416Z,4.03
2019-03-28T15:08:08.633Z,3.97
2019-03-28T15:13:13.494Z,4.77
2019-03-28T15:18:18.131Z,3.90
2019-03-28T15:23:22.661Z,3.70
2019-03-28T15:28:27.020Z,4.20
2019-03-28T15:33:39.443Z,4.37
2019-03-28T15:38:37.955Z,4.23
2019-03-28T15:44:01.064Z,3.50
2019-03-28T15:49:06.396Z,3.93
2019-03-28T15:54:10.817Z,3.50
2019-03-28T15:59:16.978Z,3.40
2019-03-28T16:04:24.826Z,4.47
2019-03-28T16:09:57.380Z,3.73
2019-03-28T16:15:05.614Z,3.80
2019-03-28T16:20:15.471Z,3.80
2019-03-28T16:25:22.087Z,4.00
2019-03-28T16:30:46.908Z,3.47
2019-03-28T16:36:56.886Z,3.60
2019-03-28T17:00:59.477Z,3.10
2019-03-28T17:07:04.871Z,3.00
2019-03-28T17:12:15.697Z,3.37
2019-03-28T17:37:39.131Z,3.17
2019-03-28T18:35:44.580Z,3.30
2019-03-28T18:41:39.037Z,3.90
2019-03-28T19:59:08.727Z,8.17
2019-03-28T20:03:15.901Z,10.77
2019-03-28T20:08:20.114Z,11.40
2019-03-28T20:13:24.353Z,10.63
2019-03-28T20:18:28.700Z,11.47
2019-03-28T20:23:35.465Z,12.17
2019-03-28T20:28:42.998Z,10.17
2019-03-28T20:33:48.953Z,11.20
2019-03-28T20:39:06.206Z,10.50
2019-03-28T20:44:11.796Z,9.80
2019-03-28T20:49:16.305Z,10.07
2019-03-28T20:54:21.230Z,9.60
2019-03-28T20:59:25.949Z,9.83
2019-03-28T21:04:31.706Z,9.53
2019-03-28T21:09:36.339Z,10.23
2019-03-28T21:14:40.954Z,9.83
2019-03-28T21:19:45.234Z,10.07
2019-03-28T21:24:50.130Z,9.87
2019-03-28T21:29:55.066Z,10.80
2019-03-28T21:34:59.412Z,10.23
2019-03-28T21:40:04.158Z,10.13
2019-03-28T21:45:10.599Z,10.87
2019-03-28T21:50:15.024Z,10.23
2019-03-28T21:55:19.740Z,9.67
2019-03-28T22:00:24.236Z,8.93
2019-03-28T22:05:28.946Z,7.57
2019-03-28T22:10:33.832Z,4.70
2019-03-28T22:15:38.468Z,4.70
2019-03-28T22:20:43.698Z,4.50
2019-03-28T22:25:49.319Z,5.23
2019-03-28T22:30:53.531Z,4.87
2019-03-28T22:36:00.989Z,3.63
2019-03-28T22:41:05.202Z,5.37
2019-03-28T22:46:09.870Z,4.17
2019-03-28T22:51:14.298Z,5.20
2019-03-28T22:56:18.526Z,4.83
2019-03-28T23:01:22.901Z,4.87
2019-03-28T23:06:27.188Z,5.00
2019-03-28T23:11:31.759Z,4.83
2019-03-28T23:16:35.976Z,4.40
2019-03-28T23:21:41.605Z,4.80
2019-03-28T23:26:45.921Z,4.33
2019-03-28T23:31:50.847Z,4.53
